Terminal Aerodrome Forecast
Issued by NWS

Home | Current Version | Previous Version | Text Only | Print | Product List | Glossary On
Versions: 1 2 3 4 5 6 7 8 9 10 11 12 13 14
301
FTUS43 KPAH 240520
TAFCGI
TAF
KCGI 240520Z 2406/2506 00000KT 3SM BR SKC
     FM240900 00000KT 1SM BR BCFG SCT002
     FM241330 VRB03KT P6SM SKC
     FM241700 14004KT P6SM SCT050
     FM250000 14002KT P6SM SKC=

USA.gov is the U.S. government's official web portal to all federal, state and local government web resources and services.